Belmont, MA (02478)

06:25 PM EDT del 22 Ottobre 2014 (GMT -0400)
Cushing Square | Change Station
CLOSE
Current Station
Stazione meteo personale
Location: Belmont, MA
Altitudine: 135 ft
Stazioni meteo nelle vicinanze

Alt. 135 ft 42.39 °N, 71.18 °W | Updated 26 seconds ago

Pioggia
Pioggia
50.5 °F
Sembra 50.5 °F
N
3.8
Vento Variabile Vento da Est
Gusts 7.6 mph

Oggi
Massima -- | Minima -- °F
--% Possibilità di precip.
Ieri
Massima -- | Minima -- °F
Precip. -- in
7:05 AM 5:51 PM
Luna calante, 1% visible
Pressione 29.89 in
Visibilità 2.0 miglia
Nuvole Coperto 1000 ft
Punto di rugiada 49 °F
Umidità 95%
Piovosità 0.00 in
Spessore del manto nevoso Non disponibile.
Raggi UV 0 fuori da 12
Polline .30 fuori da 12
Ozono Buono
PM2.5 Buono
Flu Activity No Activity
SPECI KBED 222219Z 03016G23KT 2SM -RA BR OVC010 09/08 A2989 RMK AO2 PK WND 02027/2200 P0000 T00890083

More Conditions Fewer Conditions

Pressione 29.89 in
Visibilità 2.0 miglia
Nuvole Coperto 1000 ft
Punto di rugiada 49 °F
Umidità 95%
Piovosità 0.00 in
Spessore del manto nevoso Non disponibile.
Raggi UV 0 fuori da 12
Polline .30 fuori da 12
Ozono Buono
PM2.5 Buono
Flu Activity No Activity
SPECI KBED 222219Z 03016G23KT 2SM -RA BR OVC010 09/08 A2989 RMK AO2 PK WND 02027/2200 P0000 T00890083

More Conditions Fewer Conditions

10-Day Weather Forecast

Almanac

Astronomia

Oct. 22, 2014 Alba Tramonto
Ora attuale 07:05 EDT 17:51 EDT
Crepuscolo civile 06:37 EDT 18:20 EDT
Crepuscolo nautico 06:04 EDT 18:53 EDT
Crepuscolo astronomico 05:31 EDT 19:25 EDT
Luna 05:42 EDT 17:17 EDT
Estensione della luce visibile 11h 43m
Lunghezza del giorno
10h 46m
Tomorrow will be 2m 41s shorter.
Luna calante, 1% of the Moon is Illuminated
Oggi
Luna calante
Ott 23
Nuovo
Ott 30
Primo quarto
Nov 6
Luna piena
Nov 14
Ultimo quarto

Gli estremi di oggi

State Highs State Lows

Community

WunderPhotos

Upload Photos

1,764,064 foto caricate!

WunderBlogs® & News

Nearby

Qualità dell'aria

  Qualità dell'aria Indice AQ Inquinante
Ieri Buono
PM2.5
Ieri Buono
OZONE
Attuale Buono
PM2.5
Attuale Buono
OZONE
Mercoledì Buono
PM2.5
Giovedì Buono
PM2.5

Profondità neve

Stazione Profondità Altitudine
Non sono state evidenziate nuove nevicate

Attività sismica

Città  Distanza Mag. Data & Ora
Non sono state riportate attività sismiche nelle vicinanze.
Minimo Magnitudo Mostrato è 2.5.

Temperature delle acque costiere

Località Temperatura
Boston, MA 57.0 °F
Providence, RI 62.1 °F
Fall River, MA 63.0 °F
Conimicut Light, RI 61.0 °F

Stazioni meteo nelle vicinanze